Hibi, Japan

8:09 AM JST on June 28, 2017 (GMT +0900)
Mt.Oujigatake,Tamano,Okayama,Japan | | Change Station

Elev 700 ft 34.46 °N, 133.88 °E | Updated 2 seconds ago

Light Rain
Light Rain Mist
70.3 °F
Feels Like 70.3 °F
N
0.7
Wind Variable Wind from North
Gusts 2.2 mph

Today
High -- | Low -- °F
--% Chance of Precip.
Yesterday
High -- | Low -- °F
Precip. -- in
Pressure 29.95 in
Visibility 0.9 miles
Clouds Scattered Clouds 300 ft
Mostly Cloudy 700 ft
Dew Point 69 °F
Humidity 96%
Rainfall 0.14 in
Snow Depth Not available.
4:54 AM 7:20 PM
Waxing Crescent, 20% visible
METAR RJOT 272300Z VRB01KT 1500 R26/P1800N -RA BR FEW000 SCT003 BKN007 21/21 Q1014
Pressure 29.95 in
Visibility 0.9 miles
Clouds Scattered Clouds 300 ft
Mostly Cloudy 700 ft
Dew Point 69 °F
Humidity 96%
Rainfall 0.14 in
Snow Depth Not available.
4:54 AM 7:20 PM
Waxing Crescent, 20% visible
METAR RJOT 272300Z VRB01KT 1500 R26/P1800N -RA BR FEW000 SCT003 BKN007 21/21 Q1014

Get Severe Weather Alerts

Thanks for signing up!

Be on the lookout for a verification email in your inbox.

You'll start receiving the daily forecast at 6 AM.

×

10-Day Weather Forecast

No radar image for this location.
×

Almanac

Astronomy

Jun. 28, 2017 Rise Set
Actual Time
Civil Twilight
Nautical Twilight
Astronomical Twilight
Moon
Length of Visible Light
Length of Day
Tomorrow will be .
, % of the Moon is Illuminated

Today's Extremes

Country Highs Country Lows

Community

WunderPhotos

Category 6

Welcome to Category 6. This is the collective home for Weather Underground's featured writeups by Dr. Jeff Masters (right), Bob Henson (left), Chris Burt, and other regular contributors.

Nearby

Air Quality

  Air Quality AQ Index Pollutant
Not available.

Snow Depth

Station Depth Elevation

Earthquake Activity

City Distance Mag. Time & Date
Minimum magnitude displayed is 2.5.

Coastal Water Temperatures

Place Temperature

Stations

Nearby Weather Stations

Station Location Temp. Windchill Dew Point Humidity Wind Precip. Elev Updated Type